Time,TemperatureF,DewpointF,PressureIn,WindDirection,WindDirectionDegrees,WindSpeedMPH,WindSpeedGustMPH,Humidity,HourlyPrecipIn,Conditions,Clouds,dailyrainin,SoftwareType,DateUTC
2013-03-17 00:02:00,35.0,24.0,30.07,North,9,10.0,19.0,64,0.00,,,0.00,,2013-03-17 05:02:00,
2013-03-17 00:12:00,35.0,24.0,30.07,North,9,10.0,19.0,64,0.00,,,0.00,,2013-03-17 05:12:00,
2013-03-17 00:22:00,35.0,24.0,30.07,NNE,17,11.0,13.0,64,0.00,,,0.00,,2013-03-17 05:22:00,
2013-03-17 00:32:00,35.0,24.0,30.07,NNE,17,11.0,13.0,64,0.00,,,0.00,,2013-03-17 05:32:00,
2013-03-17 00:42:00,35.0,24.0,30.07,NNE,17,11.0,13.0,64,0.00,,,0.00,,2013-03-17 05:42:00,
2013-03-17 00:52:00,35.0,24.0,30.08,NNE,26,7.0,9.0,65,0.00,,,0.00,,2013-03-17 05:52:00,
2013-03-17 01:02:00,34.0,24.0,30.06,NNE,29,14.0,20.0,67,0.00,,,0.00,,2013-03-17 06:02:00,
2013-03-17 01:12:00,34.0,24.0,30.06,NNE,29,14.0,20.0,67,0.00,,,0.00,,2013-03-17 06:12:00,
2013-03-17 01:22:00,34.0,25.0,30.07,NNE,33,11.0,12.0,68,0.00,,,0.00,,2013-03-17 06:22:00,
2013-03-17 01:32:00,34.0,24.0,30.07,NE,36,11.0,14.0,67,0.00,,,0.00,,2013-03-17 06:32:00,
2013-03-17 01:42:00,34.0,24.0,30.07,NE,36,11.0,14.0,67,0.00,,,0.00,,2013-03-17 06:42:00,
2013-03-17 01:52:00,33.0,23.0,30.06,NNE,25,11.0,14.0,67,0.00,,,0.00,,2013-03-17 06:52:00,
2013-03-17 02:02:00,33.0,23.0,30.06,NNE,31,18.0,18.0,67,0.00,,,0.00,,2013-03-17 07:02:00,
2013-03-17 02:12:00,33.0,23.0,30.06,NNE,31,18.0,18.0,67,0.00,,,0.00,,2013-03-17 07:12:00,
2013-03-17 02:22:00,33.0,24.0,30.08,NNE,27,12.0,16.0,68,0.00,,,0.00,,2013-03-17 07:22:00,
2013-03-17 02:32:00,32.0,23.0,30.07,NNE,24,8.0,19.0,68,0.00,,,0.00,,2013-03-17 07:32:00,
2013-03-17 02:42:00,32.0,23.0,30.07,NNE,24,8.0,19.0,68,0.00,,,0.00,,2013-03-17 07:42:00,
2013-03-17 02:52:00,32.0,23.0,30.06,NE,35,6.0,10.0,69,0.00,,,0.00,,2013-03-17 07:52:00,
2013-03-17 03:02:00,32.0,23.0,30.06,NNE,28,10.0,13.0,69,0.00,,,0.00,,2013-03-17 08:02:00,
2013-03-17 03:12:00,31.0,22.0,30.06,NNE,13,11.0,13.0,70,0.00,,,0.00,,2013-03-17 08:12:00,
2013-03-17 03:22:00,31.0,22.0,30.06,NNE,13,11.0,13.0,70,0.00,,,0.00,,2013-03-17 08:22:00,
2013-03-17 03:32:00,31.0,23.0,30.06,NE,35,13.0,15.0,72,0.00,,,0.00,,2013-03-17 08:32:00,
2013-03-17 03:42:00,31.0,23.0,30.06,NE,35,13.0,15.0,72,0.00,,,0.00,,2013-03-17 08:42:00,
2013-03-17 03:52:00,31.0,23.0,30.06,NE,36,16.0,16.0,73,0.00,,,0.00,,2013-03-17 08:52:00,
2013-03-17 04:02:00,30.0,23.0,30.08,NNE,31,5.0,11.0,75,0.00,,,0.00,,2013-03-17 09:02:00,
2013-03-17 04:12:00,30.0,23.0,30.08,NNE,31,5.0,11.0,75,0.00,,,0.00,,2013-03-17 09:12:00,
2013-03-17 04:22:00,30.0,24.0,30.06,ENE,57,8.0,11.0,77,0.00,,,0.00,,2013-03-17 09:22:00,
2013-03-17 04:32:00,30.0,24.0,30.05,NNE,28,10.0,11.0,78,0.00,,,0.00,,2013-03-17 09:32:00,
2013-03-17 04:42:00,30.0,24.0,30.05,NNE,28,10.0,11.0,78,0.00,,,0.00,,2013-03-17 09:42:00,
2013-03-17 04:53:00,30.0,24.0,30.03,ENE,61,10.0,12.0,79,0.00,,,0.00,,2013-03-17 09:53:00,
2013-03-17 05:03:00,29.0,23.0,30.04,ENE,57,11.0,13.0,79,0.00,,,0.00,,2013-03-17 10:03:00,
2013-03-17 05:13:00,29.0,23.0,30.04,ENE,57,11.0,13.0,79,0.00,,,0.00,,2013-03-17 10:13:00,
2013-03-17 05:23:00,29.0,24.0,30.03,ENE,75,4.0,11.0,80,0.00,,,0.00,,2013-03-17 10:23:00,
2013-03-17 05:33:00,29.0,24.0,30.03,ENE,71,4.0,8.0,80,0.00,,,0.00,,2013-03-17 10:33:00,
2013-03-17 05:42:00,29.0,24.0,30.03,ENE,71,4.0,8.0,80,0.00,,,0.00,,2013-03-17 10:42:00,
2013-03-17 05:52:00,29.0,24.0,30.04,NE,36,6.0,11.0,81,0.00,,,0.00,,2013-03-17 10:52:00,
2013-03-17 06:02:00,29.0,23.0,30.02,NE,40,14.0,18.0,78,0.00,,,0.00,,2013-03-17 11:02:00,
2013-03-17 06:12:00,29.0,23.0,30.02,NE,40,14.0,18.0,78,0.00,,,0.00,,2013-03-17 11:12:00,
2013-03-17 06:22:00,29.0,23.0,30.03,NE,38,12.0,17.0,78,0.00,,,0.00,,2013-03-17 11:22:00,
2013-03-17 06:32:00,29.0,23.0,30.04,ENE,62,10.0,13.0,78,0.00,,,0.00,,2013-03-17 11:32:00,
2013-03-17 06:42:00,29.0,23.0,30.04,ENE,62,10.0,13.0,78,0.00,,,0.00,,2013-03-17 11:42:00,
2013-03-17 06:52:00,29.0,23.0,30.05,NE,53,11.0,15.0,77,0.00,,,0.00,,2013-03-17 11:52:00,
2013-03-17 07:02:00,29.0,23.0,30.04,ENE,74,7.0,11.0,77,0.00,,,0.00,,2013-03-17 12:02:00,
2013-03-17 07:12:00,29.0,23.0,30.04,ENE,74,7.0,11.0,77,0.00,,,0.00,,2013-03-17 12:12:00,
2013-03-17 07:22:00,29.0,22.0,30.05,ENE,59,14.0,14.0,75,0.00,,,0.00,,2013-03-17 12:22:00,
2013-03-17 07:32:00,29.0,22.0,30.04,ENE,76,10.0,13.0,75,0.00,,,0.00,,2013-03-17 12:32:00,
2013-03-17 07:42:00,29.0,22.0,30.04,ENE,76,10.0,13.0,75,0.00,,,0.00,,2013-03-17 12:42:00,
2013-03-17 07:52:00,29.0,22.0,30.05,ENE,61,7.0,12.0,75,0.00,,,0.00,,2013-03-17 12:52:00,
2013-03-17 08:02:00,29.0,22.0,30.03,ENE,75,7.0,15.0,75,0.00,,,0.00,,2013-03-17 13:02:00,
2013-03-17 08:12:00,29.0,22.0,30.03,ENE,75,7.0,15.0,75,0.00,,,0.00,,2013-03-17 13:12:00,
2013-03-17 08:22:00,29.0,22.0,30.04,ENE,63,9.0,14.0,75,0.00,,,0.00,,2013-03-17 13:22:00,
2013-03-17 08:32:00,30.0,23.0,30.04,ENE,57,8.0,15.0,75,0.00,,,0.00,,2013-03-17 13:32:00,
2013-03-17 08:42:00,30.0,23.0,30.04,ENE,57,8.0,15.0,75,0.00,,,0.00,,2013-03-17 13:42:00,
2013-03-17 08:52:00,30.0,23.0,30.03,ENE,77,10.0,13.0,75,0.00,,,0.00,,2013-03-17 13:52:00,
2013-03-17 09:02:00,30.0,23.0,30.06,NE,41,12.0,12.0,75,0.00,,,0.00,,2013-03-17 14:02:00,
2013-03-17 09:12:00,30.0,23.0,30.06,NE,41,12.0,12.0,75,0.00,,,0.00,,2013-03-17 14:12:00,
2013-03-17 09:22:00,31.0,24.0,30.03,NE,41,18.0,18.0,75,0.00,,,0.00,,2013-03-17 14:22:00,
2013-03-17 09:32:00,31.0,24.0,30.04,ENE,69,16.0,17.0,74,0.00,,,0.00,,2013-03-17 14:32:00,
2013-03-17 09:42:00,31.0,24.0,30.04,ENE,69,16.0,17.0,74,0.00,,,0.00,,2013-03-17 14:42:00,
2013-03-17 09:53:00,31.0,24.0,30.03,ENE,76,10.0,16.0,74,0.00,,,0.00,,2013-03-17 14:53:00,
2013-03-17 10:02:00,31.0,24.0,30.04,ENE,76,8.0,15.0,74,0.00,,,0.00,,2013-03-17 15:02:00,
2013-03-17 10:12:00,31.0,24.0,30.04,ENE,76,8.0,15.0,74,0.00,,,0.00,,2013-03-17 15:12:00,
2013-03-17 10:23:00,31.0,24.0,30.03,NE,54,11.0,13.0,74,0.00,,,0.00,,2013-03-17 15:23:00,
2013-03-17 10:33:00,32.0,24.0,30.03,ENE,62,13.0,15.0,72,0.00,,,0.00,,2013-03-17 15:33:00,
2013-03-17 10:42:00,32.0,24.0,30.03,ENE,62,13.0,15.0,72,0.00,,,0.00,,2013-03-17 15:42:00,
2013-03-17 10:53:00,33.0,25.0,30.04,East,82,11.0,15.0,72,0.00,,,0.00,,2013-03-17 15:53:00,
2013-03-17 11:03:00,34.0,26.0,30.02,East,90,7.0,12.0,71,0.00,,,0.00,,2013-03-17 16:03:00,
2013-03-17 11:12:00,34.0,26.0,30.02,East,90,7.0,12.0,71,0.00,,,0.00,,2013-03-17 16:12:00,
2013-03-17 11:22:00,34.0,26.0,30.02,East,90,7.0,12.0,71,0.00,,,0.00,,2013-03-17 16:22:00,
2013-03-17 11:33:00,34.0,26.0,30.02,East,90,7.0,12.0,71,0.00,,,0.00,,2013-03-17 16:33:00,
2013-03-17 11:42:00,34.0,26.0,30.02,East,90,7.0,12.0,71,0.00,,,0.00,,2013-03-17 16:42:00,
2013-03-17 11:52:00,34.0,25.0,30.01,ENE,77,10.0,15.0,69,0.00,,,0.00,,2013-03-17 16:52:00,
2013-03-17 12:02:00,34.0,25.0,30.01,ENE,65,10.0,13.0,69,0.00,,,0.00,,2013-03-17 17:02:00,
2013-03-17 12:12:00,34.0,25.0,30.01,ENE,65,10.0,13.0,69,0.00,,,0.00,,2013-03-17 17:12:00,
2013-03-17 12:22:00,35.0,26.0,30.00,East,86,13.0,17.0,68,0.00,,,0.00,,2013-03-17 17:22:00,
2013-03-17 12:33:00,35.0,26.0,30.01,East,96,10.0,12.0,69,0.00,,,0.00,,2013-03-17 17:33:00,
2013-03-17 12:42:00,35.0,26.0,30.01,East,96,10.0,12.0,69,0.00,,,0.00,,2013-03-17 17:42:00,
2013-03-17 12:53:00,36.0,26.0,29.99,ESE,119,10.0,14.0,67,0.00,,,0.00,,2013-03-17 17:53:00,
2013-03-17 13:02:00,36.0,26.0,29.98,East,101,11.0,15.0,67,0.00,,,0.00,,2013-03-17 18:02:00,
2013-03-17 13:12:00,36.0,26.0,29.98,East,101,11.0,15.0,67,0.00,,,0.00,,2013-03-17 18:12:00,
2013-03-17 13:22:00,36.0,26.0,29.98,ENE,67,9.0,14.0,66,0.00,,,0.00,,2013-03-17 18:22:00,
2013-03-17 13:32:00,37.0,27.0,29.96,East,88,7.0,12.0,66,0.00,,,0.00,,2013-03-17 18:32:00,
2013-03-17 13:42:00,37.0,27.0,29.96,East,88,7.0,12.0,66,0.00,,,0.00,,2013-03-17 18:42:00,
2013-03-17 13:52:00,37.0,27.0,29.96,ENE,65,11.0,14.0,66,0.00,,,0.00,,2013-03-17 18:52:00,
2013-03-17 14:02:00,37.0,26.0,29.94,ENE,67,11.0,15.0,65,0.00,,,0.00,,2013-03-17 19:02:00,
2013-03-17 14:12:00,37.0,26.0,29.94,ENE,67,11.0,15.0,65,0.00,,,0.00,,2013-03-17 19:12:00,
2013-03-17 14:22:00,37.0,27.0,29.93,ENE,76,10.0,11.0,66,0.00,,,0.00,,2013-03-17 19:22:00,
2013-03-17 14:33:00,37.0,27.0,29.91,ENE,71,16.0,16.0,66,0.00,,,0.00,,2013-03-17 19:33:00,
2013-03-17 14:42:00,37.0,27.0,29.91,ENE,71,16.0,16.0,66,0.00,,,0.00,,2013-03-17 19:42:00,
2013-03-17 14:53:00,37.0,27.0,29.91,ESE,115,12.0,12.0,67,0.00,,,0.00,,2013-03-17 19:53:00,
2013-03-17 15:02:00,37.0,27.0,29.89,ENE,69,9.0,13.0,67,0.00,,,0.00,,2013-03-17 20:02:00,
2013-03-17 15:12:00,37.0,27.0,29.89,ENE,69,9.0,13.0,67,0.00,,,0.00,,2013-03-17 20:12:00,
2013-03-17 15:22:00,37.0,27.0,29.89,ENE,64,9.0,12.0,67,0.00,,,0.00,,2013-03-17 20:22:00,
2013-03-17 15:32:00,36.0,27.0,29.88,East,88,10.0,16.0,69,0.00,,,0.00,,2013-03-17 20:32:00,
2013-03-17 15:42:00,36.0,27.0,29.88,East,88,10.0,16.0,69,0.00,,,0.00,,2013-03-17 20:42:00,
2013-03-17 15:52:00,36.0,27.0,29.87,ENE,67,5.0,10.0,70,0.00,,,0.00,,2013-03-17 20:52:00,
2013-03-17 16:02:00,36.0,28.0,29.86,NNE,31,14.0,14.0,71,0.00,,,0.00,,2013-03-17 21:02:00,
2013-03-17 16:12:00,36.0,28.0,29.86,NNE,31,14.0,14.0,71,0.00,,,0.00,,2013-03-17 21:12:00,
2013-03-17 16:22:00,36.0,28.0,29.87,ENE,57,13.0,13.0,73,0.00,,,0.00,,2013-03-17 21:22:00,
2013-03-17 16:33:00,36.0,29.0,29.85,East,91,5.0,13.0,75,0.01,,,0.01,,2013-03-17 21:33:00,
2013-03-17 16:42:00,36.0,29.0,29.85,East,91,5.0,13.0,75,0.01,,,0.01,,2013-03-17 21:42:00,
2013-03-17 16:52:00,35.0,28.0,29.86,East,79,8.0,14.0,76,0.01,,,0.01,,2013-03-17 21:52:00,
2013-03-17 17:03:00,35.0,29.0,29.86,East,79,9.0,11.0,78,0.01,,,0.01,,2013-03-17 22:03:00,
2013-03-17 17:12:00,35.0,29.0,29.86,East,90,7.0,13.0,79,0.02,,,0.02,,2013-03-17 22:12:00,
2013-03-17 17:23:00,35.0,29.0,29.86,East,90,7.0,13.0,79,0.02,,,0.02,,2013-03-17 22:23:00,
2013-03-17 17:33:00,34.0,29.0,29.86,ESE,108,4.0,10.0,81,0.02,,,0.03,,2013-03-17 22:33:00,
2013-03-17 17:42:00,34.0,29.0,29.86,ESE,108,4.0,10.0,81,0.02,,,0.03,,2013-03-17 22:42:00,
2013-03-17 17:53:00,34.0,29.0,29.85,East,97,6.0,10.0,82,0.03,,,0.04,,2013-03-17 22:53:00,
2013-03-17 18:02:00,34.0,29.0,29.83,East,80,7.0,11.0,83,0.03,,,0.04,,2013-03-17 23:02:00,
2013-03-17 18:12:00,34.0,29.0,29.83,East,80,7.0,11.0,83,0.03,,,0.04,,2013-03-17 23:12:00,
2013-03-17 18:22:00,34.0,30.0,29.84,East,89,6.0,6.0,84,0.03,,,0.04,,2013-03-17 23:22:00,
2013-03-17 18:32:00,34.0,30.0,29.82,ENE,77,10.0,13.0,84,0.03,,,0.05,,2013-03-17 23:32:00,
2013-03-17 18:42:00,34.0,30.0,29.82,ENE,77,10.0,13.0,84,0.03,,,0.05,,2013-03-17 23:42:00,
2013-03-17 18:53:00,34.0,30.0,29.82,ENE,67,10.0,14.0,84,0.01,,,0.05,,2013-03-17 23:53:00,
2013-03-17 19:03:00,33.0,29.0,29.83,ENE,74,13.0,17.0,84,0.01,,,0.05,,2013-03-18 00:03:00,
2013-03-17 19:12:00,33.0,29.0,29.83,ENE,74,13.0,17.0,84,0.01,,,0.05,,2013-03-18 00:12:00,
2013-03-17 19:22:00,33.0,29.0,29.82,East,89,7.0,12.0,84,0.01,,,0.05,,2013-03-18 00:22:00,
2013-03-17 19:33:00,33.0,29.0,29.81,ENE,71,10.0,15.0,84,0.01,,,0.06,,2013-03-18 00:33:00,
2013-03-17 19:42:00,33.0,29.0,29.81,ENE,71,10.0,15.0,84,0.01,,,0.06,,2013-03-18 00:42:00,
2013-03-17 19:52:00,33.0,29.0,29.80,East,88,9.0,18.0,85,0.04,,,0.09,,2013-03-18 00:52:00,
2013-03-17 20:02:00,33.0,29.0,29.80,East,81,8.0,11.0,86,0.07,,,0.12,,2013-03-18 01:02:00,
2013-03-17 20:12:00,33.0,29.0,29.80,East,81,8.0,11.0,86,0.07,,,0.12,,2013-03-18 01:12:00,
2013-03-17 20:22:00,33.0,29.0,29.80,East,91,11.0,16.0,86,0.08,,,0.13,,2013-03-18 01:22:00,
2013-03-17 20:32:00,33.0,29.0,29.79,ENE,61,9.0,13.0,86,0.08,,,0.14,,2013-03-18 01:32:00,
2013-03-17 20:42:00,33.0,29.0,29.79,ENE,61,9.0,13.0,86,0.08,,,0.14,,2013-03-18 01:42:00,
2013-03-17 20:52:00,33.0,29.0,29.79,ENE,72,8.0,12.0,86,0.06,,,0.14,,2013-03-18 01:52:00,
2013-03-17 21:02:00,33.0,29.0,29.80,ENE,72,8.0,10.0,86,0.02,,,0.14,,2013-03-18 02:02:00,
2013-03-17 21:12:00,33.0,29.0,29.80,ENE,72,8.0,10.0,86,0.02,,,0.14,,2013-03-18 02:12:00,
2013-03-17 21:22:00,33.0,29.0,29.79,East,96,10.0,13.0,86,0.01,,,0.14,,2013-03-18 02:22:00,
2013-03-17 21:32:00,33.0,29.0,29.79,East,81,7.0,13.0,86,0.00,,,0.14,,2013-03-18 02:32:00,
2013-03-17 21:42:00,33.0,29.0,29.79,East,81,7.0,13.0,86,0.00,,,0.14,,2013-03-18 02:42:00,
2013-03-17 21:52:00,33.0,29.0,29.80,East,86,6.0,11.0,86,0.00,,,0.14,,2013-03-18 02:52:00,
2013-03-17 22:02:00,33.0,29.0,29.80,ENE,67,9.0,12.0,86,0.00,,,0.14,,2013-03-18 03:02:00,
2013-03-17 22:11:00,33.0,29.0,29.80,East,85,8.0,11.0,86,0.00,,,0.14,,2013-03-18 03:11:00,
2013-03-17 22:22:00,33.0,29.0,29.80,East,85,8.0,11.0,86,0.00,,,0.14,,2013-03-18 03:22:00,
2013-03-17 22:33:00,33.0,29.0,29.80,ENE,74,8.0,8.0,86,0.00,,,0.14,,2013-03-18 03:33:00,
2013-03-17 22:42:00,33.0,29.0,29.80,ENE,74,8.0,8.0,86,0.00,,,0.14,,2013-03-18 03:42:00,
2013-03-17 22:53:00,33.0,29.0,29.79,ENE,67,10.0,12.0,86,0.00,,,0.14,,2013-03-18 03:53:00,
2013-03-17 23:03:00,33.0,29.0,29.78,East,91,7.0,8.0,86,0.00,,,0.14,,2013-03-18 04:03:00,
2013-03-17 23:13:00,33.0,29.0,29.78,East,91,7.0,8.0,86,0.00,,,0.14,,2013-03-18 04:13:00,
2013-03-17 23:22:00,33.0,30.0,29.79,East,86,8.0,8.0,87,0.00,,,0.14,,2013-03-18 04:22:00,
2013-03-17 23:33:00,33.0,30.0,29.78,East,97,5.0,5.0,87,0.00,,,0.14,,2013-03-18 04:33:00,
2013-03-17 23:42:00,33.0,30.0,29.78,East,97,5.0,5.0,87,0.00,,,0.14,,2013-03-18 04:42:00,
2013-03-17 23:52:00,34.0,31.0,29.79,ESE,113,6.0,11.0,87,0.00,,,0.14,,2013-03-18 04:52:00,